sensor_id;sensor_type;location;lat;lon;timestamp;P1;durP1;ratioP1;P2;durP2;ratioP2
76123;SDS011;65173;48.066;20.976;2022-12-24T00:00:38;166.27;;;47.67;;
76123;SDS011;65173;48.066;20.976;2022-12-24T00:03:41;141.20;;;39.80;;
76123;SDS011;65173;48.066;20.976;2022-12-24T00:06:43;197.43;;;44.38;;
76123;SDS011;65173;48.066;20.976;2022-12-24T00:09:46;165.77;;;38.20;;
76123;SDS011;65173;48.066;20.976;2022-12-24T00:12:49;145.93;;;38.50;;
76123;SDS011;65173;48.066;20.976;2022-12-24T00:15:52;178.30;;;45.80;;
76123;SDS011;65173;48.066;20.976;2022-12-24T00:18:55;129.63;;;31.45;;
76123;SDS011;65173;48.066;20.976;2022-12-24T00:21:58;117.18;;;29.23;;
76123;SDS011;65173;48.066;20.976;2022-12-24T00:25:00;151.85;;;36.75;;
76123;SDS011;65173;48.066;20.976;2022-12-24T00:28:03;92.00;;;23.92;;
76123;SDS011;65173;48.066;20.976;2022-12-24T00:31:16;83.13;;;20.60;;
76123;SDS011;65173;48.066;20.976;2022-12-24T00:34:21;63.83;;;16.77;;
76123;SDS011;65173;48.066;20.976;2022-12-24T00:37:24;125.35;;;23.58;;
76123;SDS011;65173;48.066;20.976;2022-12-24T00:40:29;88.97;;;21.52;;
76123;SDS011;65173;48.066;20.976;2022-12-24T00:43:33;117.63;;;22.40;;
76123;SDS011;65173;48.066;20.976;2022-12-24T00:46:37;127.78;;;22.35;;
76123;SDS011;65173;48.066;20.976;2022-12-24T00:49:41;138.95;;;22.38;;
76123;SDS011;65173;48.066;20.976;2022-12-24T00:52:44;118.97;;;21.77;;
76123;SDS011;65173;48.066;20.976;2022-12-24T00:55:47;163.60;;;24.50;;
76123;SDS011;65173;48.066;20.976;2022-12-24T00:58:50;103.93;;;19.67;;
76123;SDS011;65173;48.066;20.976;2022-12-24T01:01:53;153.98;;;24.25;;
76123;SDS011;65173;48.066;20.976;2022-12-24T01:04:56;163.33;;;23.40;;
76123;SDS011;65173;48.066;20.976;2022-12-24T01:08:13;180.65;;;28.02;;
76123;SDS011;65173;48.066;20.976;2022-12-24T01:11:16;148.63;;;23.52;;
76123;SDS011;65173;48.066;20.976;2022-12-24T01:14:19;146.57;;;23.40;;
76123;SDS011;65173;48.066;20.976;2022-12-24T01:17:22;131.05;;;21.88;;
76123;SDS011;65173;48.066;20.976;2022-12-24T01:20:27;106.72;;;16.45;;
76123;SDS011;65173;48.066;20.976;2022-12-24T01:23:32;106.50;;;18.17;;
76123;SDS011;65173;48.066;20.976;2022-12-24T01:26:35;67.43;;;14.93;;
76123;SDS011;65173;48.066;20.976;2022-12-24T01:29:38;76.57;;;17.63;;
76123;SDS011;65173;48.066;20.976;2022-12-24T01:32:41;79.25;;;16.90;;
76123;SDS011;65173;48.066;20.976;2022-12-24T01:35:44;150.40;;;22.47;;
76123;SDS011;65173;48.066;20.976;2022-12-24T01:38:47;154.85;;;21.88;;
76123;SDS011;65173;48.066;20.976;2022-12-24T01:41:49;131.18;;;22.85;;
76123;SDS011;65173;48.066;20.976;2022-12-24T01:48:59;88.35;;;20.15;;
76123;SDS011;65173;48.066;20.976;2022-12-24T01:52:05;69.55;;;17.35;;
76123;SDS011;65173;48.066;20.976;2022-12-24T01:55:13;157.30;;;32.35;;
76123;SDS011;65173;48.066;20.976;2022-12-24T01:58:18;121.18;;;33.75;;
76123;SDS011;65173;48.066;20.976;2022-12-24T02:01:25;121.78;;;32.05;;
76123;SDS011;65173;48.066;20.976;2022-12-24T02:04:41;148.32;;;28.73;;
76123;SDS011;65173;48.066;20.976;2022-12-24T02:07:50;98.27;;;20.07;;
76123;SDS011;65173;48.066;20.976;2022-12-24T02:10:53;118.20;;;21.83;;
76123;SDS011;65173;48.066;20.976;2022-12-24T02:13:57;104.35;;;23.70;;
76123;SDS011;65173;48.066;20.976;2022-12-24T02:30:35;44.38;;;12.35;;
76123;SDS011;65173;48.066;20.976;2022-12-24T02:34:00;47.95;;;13.85;;
76123;SDS011;65173;48.066;20.976;2022-12-24T02:40:27;67.23;;;14.10;;
76123;SDS011;65173;48.066;20.976;2022-12-24T02:43:40;74.47;;;16.75;;
76123;SDS011;65173;48.066;20.976;2022-12-24T02:46:46;83.57;;;17.92;;
76123;SDS011;65173;48.066;20.976;2022-12-24T02:49:50;94.70;;;17.93;;
76123;SDS011;65173;48.066;20.976;2022-12-24T02:52:53;81.40;;;14.43;;
76123;SDS011;65173;48.066;20.976;2022-12-24T02:55:58;91.40;;;17.63;;
76123;SDS011;65173;48.066;20.976;2022-12-24T02:59:35;85.72;;;17.48;;
76123;SDS011;65173;48.066;20.976;2022-12-24T03:13:23;89.40;;;15.77;;
76123;SDS011;65173;48.066;20.976;2022-12-24T03:16:28;87.47;;;16.77;;
76123;SDS011;65173;48.066;20.976;2022-12-24T03:19:31;72.05;;;15.13;;
76123;SDS011;65173;48.066;20.976;2022-12-24T03:22:34;106.33;;;17.80;;
76123;SDS011;65173;48.066;20.976;2022-12-24T03:25:38;81.95;;;14.88;;
76123;SDS011;65173;48.066;20.976;2022-12-24T03:28:43;129.75;;;19.67;;
76123;SDS011;65173;48.066;20.976;2022-12-24T03:31:49;96.43;;;17.10;;
76123;SDS011;65173;48.066;20.976;2022-12-24T03:34:54;73.57;;;16.10;;
76123;SDS011;65173;48.066;20.976;2022-12-24T03:37:57;119.10;;;16.30;;
76123;SDS011;65173;48.066;20.976;2022-12-24T03:41:04;54.88;;;14.20;;
76123;SDS011;65173;48.066;20.976;2022-12-24T03:44:07;119.00;;;16.50;;
76123;SDS011;65173;48.066;20.976;2022-12-24T03:47:10;124.72;;;20.45;;
76123;SDS011;65173;48.066;20.976;2022-12-24T03:50:13;86.68;;;16.02;;
76123;SDS011;65173;48.066;20.976;2022-12-24T03:53:16;63.83;;;14.43;;
76123;SDS011;65173;48.066;20.976;2022-12-24T03:56:18;93.93;;;16.60;;
76123;SDS011;65173;48.066;20.976;2022-12-24T03:59:22;73.97;;;16.33;;
76123;SDS011;65173;48.066;20.976;2022-12-24T04:02:25;122.68;;;19.85;;
76123;SDS011;65173;48.066;20.976;2022-12-24T04:05:27;125.65;;;20.98;;
76123;SDS011;65173;48.066;20.976;2022-12-24T04:08:31;105.38;;;17.50;;
76123;SDS011;65173;48.066;20.976;2022-12-24T04:11:34;84.97;;;15.65;;
76123;SDS011;65173;48.066;20.976;2022-12-24T04:14:37;118.27;;;18.00;;
76123;SDS011;65173;48.066;20.976;2022-12-24T04:17:39;84.28;;;14.48;;
76123;SDS011;65173;48.066;20.976;2022-12-24T04:20:45;118.95;;;16.33;;
76123;SDS011;65173;48.066;20.976;2022-12-24T04:23:48;100.73;;;15.97;;
76123;SDS011;65173;48.066;20.976;2022-12-24T04:26:50;139.00;;;18.05;;
76123;SDS011;65173;48.066;20.976;2022-12-24T04:29:53;84.75;;;14.70;;
76123;SDS011;65173;48.066;20.976;2022-12-24T04:32:56;124.68;;;19.58;;
76123;SDS011;65173;48.066;20.976;2022-12-24T04:36:00;147.02;;;20.13;;
76123;SDS011;65173;48.066;20.976;2022-12-24T04:39:05;109.32;;;18.42;;
76123;SDS011;65173;48.066;20.976;2022-12-24T04:42:07;54.05;;;12.63;;
76123;SDS011;65173;48.066;20.976;2022-12-24T04:45:10;114.70;;;19.77;;
76123;SDS011;65173;48.066;20.976;2022-12-24T04:48:13;154.13;;;24.52;;
76123;SDS011;65173;48.066;20.976;2022-12-24T04:51:16;113.32;;;20.23;;
76123;SDS011;65173;48.066;20.976;2022-12-24T04:54:19;110.43;;;19.83;;
76123;SDS011;65173;48.066;20.976;2022-12-24T04:57:22;109.05;;;22.38;;
76123;SDS011;65173;48.066;20.976;2022-12-24T05:00:25;158.88;;;25.08;;
76123;SDS011;65173;48.066;20.976;2022-12-24T05:03:28;77.18;;;17.50;;
76123;SDS011;65173;48.066;20.976;2022-12-24T05:06:31;116.07;;;24.77;;
76123;SDS011;65173;48.066;20.976;2022-12-24T05:09:34;102.50;;;22.00;;
76123;SDS011;65173;48.066;20.976;2022-12-24T05:12:37;77.38;;;14.45;;
76123;SDS011;65173;48.066;20.976;2022-12-24T05:15:40;80.40;;;20.67;;
76123;SDS011;65173;48.066;20.976;2022-12-24T05:18:43;96.35;;;23.20;;
76123;SDS011;65173;48.066;20.976;2022-12-24T05:21:46;85.03;;;24.20;;
76123;SDS011;65173;48.066;20.976;2022-12-24T05:25:08;87.00;;;23.97;;
76123;SDS011;65173;48.066;20.976;2022-12-24T05:28:30;93.78;;;24.63;;
76123;SDS011;65173;48.066;20.976;2022-12-24T05:31:33;83.15;;;24.15;;
76123;SDS011;65173;48.066;20.976;2022-12-24T05:34:37;78.50;;;26.17;;
76123;SDS011;65173;48.066;20.976;2022-12-24T05:37:39;74.35;;;23.48;;
76123;SDS011;65173;48.066;20.976;2022-12-24T05:40:49;81.85;;;24.35;;
76123;SDS011;65173;48.066;20.976;2022-12-24T05:43:51;80.55;;;27.30;;
76123;SDS011;65173;48.066;20.976;2022-12-24T05:46:54;97.07;;;31.40;;
76123;SDS011;65173;48.066;20.976;2022-12-24T05:49:57;73.38;;;25.75;;
76123;SDS011;65173;48.066;20.976;2022-12-24T05:53:00;78.05;;;25.73;;
76123;SDS011;65173;48.066;20.976;2022-12-24T05:56:07;72.87;;;26.23;;
76123;SDS011;65173;48.066;20.976;2022-12-24T05:59:11;77.25;;;23.52;;
76123;SDS011;65173;48.066;20.976;2022-12-24T06:02:14;82.43;;;23.20;;
76123;SDS011;65173;48.066;20.976;2022-12-24T06:05:17;79.97;;;25.00;;
76123;SDS011;65173;48.066;20.976;2022-12-24T06:08:20;75.57;;;22.17;;
76123;SDS011;65173;48.066;20.976;2022-12-24T06:11:24;100.10;;;26.23;;
76123;SDS011;65173;48.066;20.976;2022-12-24T06:14:28;118.10;;;26.33;;
76123;SDS011;65173;48.066;20.976;2022-12-24T06:17:31;122.37;;;26.83;;
76123;SDS011;65173;48.066;20.976;2022-12-24T06:20:38;82.80;;;23.13;;
76123;SDS011;65173;48.066;20.976;2022-12-24T06:23:41;171.85;;;33.00;;
76123;SDS011;65173;48.066;20.976;2022-12-24T06:26:45;143.50;;;28.47;;
76123;SDS011;65173;48.066;20.976;2022-12-24T06:29:48;134.38;;;28.17;;
76123;SDS011;65173;48.066;20.976;2022-12-24T06:32:51;125.50;;;27.42;;
76123;SDS011;65173;48.066;20.976;2022-12-24T06:35:54;95.57;;;27.58;;
76123;SDS011;65173;48.066;20.976;2022-12-24T06:38:56;93.50;;;28.05;;
76123;SDS011;65173;48.066;20.976;2022-12-24T06:41:59;87.68;;;26.02;;
76123;SDS011;65173;48.066;20.976;2022-12-24T06:45:02;86.53;;;28.67;;
76123;SDS011;65173;48.066;20.976;2022-12-24T06:48:09;77.10;;;24.73;;
76123;SDS011;65173;48.066;20.976;2022-12-24T06:51:13;85.25;;;27.73;;
76123;SDS011;65173;48.066;20.976;2022-12-24T06:54:17;80.70;;;28.17;;
76123;SDS011;65173;48.066;20.976;2022-12-24T06:57:20;60.10;;;22.90;;
76123;SDS011;65173;48.066;20.976;2022-12-24T07:00:23;70.82;;;25.58;;
76123;SDS011;65173;48.066;20.976;2022-12-24T07:03:26;62.67;;;23.60;;
76123;SDS011;65173;48.066;20.976;2022-12-24T07:06:29;60.45;;;22.98;;
76123;SDS011;65173;48.066;20.976;2022-12-24T07:09:32;66.53;;;23.77;;
76123;SDS011;65173;48.066;20.976;2022-12-24T07:12:34;66.07;;;24.13;;
76123;SDS011;65173;48.066;20.976;2022-12-24T07:15:37;54.97;;;23.67;;
76123;SDS011;65173;48.066;20.976;2022-12-24T07:18:40;51.60;;;22.20;;
76123;SDS011;65173;48.066;20.976;2022-12-24T07:21:43;60.50;;;25.65;;
76123;SDS011;65173;48.066;20.976;2022-12-24T07:24:45;62.50;;;25.25;;
76123;SDS011;65173;48.066;20.976;2022-12-24T07:27:48;52.53;;;23.57;;
76123;SDS011;65173;48.066;20.976;2022-12-24T07:30:51;64.25;;;25.42;;
76123;SDS011;65173;48.066;20.976;2022-12-24T07:33:54;58.60;;;26.42;;
76123;SDS011;65173;48.066;20.976;2022-12-24T07:36:57;160.32;;;73.82;;
76123;SDS011;65173;48.066;20.976;2022-12-24T07:40:00;72.15;;;28.25;;
76123;SDS011;65173;48.066;20.976;2022-12-24T07:43:03;62.25;;;27.08;;
76123;SDS011;65173;48.066;20.976;2022-12-24T07:46:05;52.92;;;19.83;;
76123;SDS011;65173;48.066;20.976;2022-12-24T07:49:09;49.30;;;19.80;;
76123;SDS011;65173;48.066;20.976;2022-12-24T07:52:12;46.60;;;18.17;;
76123;SDS011;65173;48.066;20.976;2022-12-24T07:55:15;45.38;;;19.38;;
76123;SDS011;65173;48.066;20.976;2022-12-24T07:58:18;44.80;;;18.83;;
76123;SDS011;65173;48.066;20.976;2022-12-24T08:01:22;40.97;;;18.50;;
76123;SDS011;65173;48.066;20.976;2022-12-24T08:04:24;53.05;;;20.20;;
76123;SDS011;65173;48.066;20.976;2022-12-24T08:07:27;51.03;;;19.33;;
76123;SDS011;65173;48.066;20.976;2022-12-24T08:10:31;35.13;;;14.82;;
76123;SDS011;65173;48.066;20.976;2022-12-24T08:13:33;39.22;;;17.55;;
76123;SDS011;65173;48.066;20.976;2022-12-24T08:16:36;37.97;;;19.00;;
76123;SDS011;65173;48.066;20.976;2022-12-24T08:19:39;41.27;;;19.50;;
76123;SDS011;65173;48.066;20.976;2022-12-24T08:22:42;44.45;;;19.95;;
76123;SDS011;65173;48.066;20.976;2022-12-24T08:25:45;41.33;;;19.00;;
76123;SDS011;65173;48.066;20.976;2022-12-24T08:28:49;43.27;;;20.73;;
76123;SDS011;65173;48.066;20.976;2022-12-24T08:31:52;82.15;;;36.88;;
76123;SDS011;65173;48.066;20.976;2022-12-24T08:34:55;113.72;;;47.47;;
76123;SDS011;65173;48.066;20.976;2022-12-24T08:37:58;122.00;;;54.88;;
76123;SDS011;65173;48.066;20.976;2022-12-24T08:41:01;145.20;;;72.82;;
76123;SDS011;65173;48.066;20.976;2022-12-24T08:44:04;116.70;;;68.35;;
76123;SDS011;65173;48.066;20.976;2022-12-24T08:47:06;103.43;;;55.90;;
76123;SDS011;65173;48.066;20.976;2022-12-24T08:50:11;109.07;;;57.27;;
76123;SDS011;65173;48.066;20.976;2022-12-24T08:53:14;85.00;;;45.45;;
76123;SDS011;65173;48.066;20.976;2022-12-24T08:56:17;86.75;;;45.97;;
76123;SDS011;65173;48.066;20.976;2022-12-24T08:59:20;44.83;;;24.17;;
76123;SDS011;65173;48.066;20.976;2022-12-24T09:02:23;40.75;;;22.08;;
76123;SDS011;65173;48.066;20.976;2022-12-24T09:05:26;65.40;;;36.13;;
76123;SDS011;65173;48.066;20.976;2022-12-24T09:08:29;60.38;;;32.85;;
76123;SDS011;65173;48.066;20.976;2022-12-24T09:11:33;41.03;;;22.02;;
76123;SDS011;65173;48.066;20.976;2022-12-24T09:14:36;43.47;;;22.88;;
76123;SDS011;65173;48.066;20.976;2022-12-24T09:17:39;39.78;;;20.48;;
76123;SDS011;65173;48.066;20.976;2022-12-24T09:20:43;39.40;;;21.90;;
76123;SDS011;65173;48.066;20.976;2022-12-24T09:23:48;31.25;;;18.30;;
76123;SDS011;65173;48.066;20.976;2022-12-24T09:26:51;35.42;;;20.20;;
76123;SDS011;65173;48.066;20.976;2022-12-24T09:29:59;32.17;;;20.10;;
76123;SDS011;65173;48.066;20.976;2022-12-24T09:33:02;39.95;;;24.20;;
76123;SDS011;65173;48.066;20.976;2022-12-24T09:36:26;42.42;;;25.25;;
76123;SDS011;65173;48.066;20.976;2022-12-24T09:39:28;35.83;;;20.20;;
76123;SDS011;65173;48.066;20.976;2022-12-24T09:42:49;39.42;;;23.70;;
76123;SDS011;65173;48.066;20.976;2022-12-24T09:49:17;31.40;;;18.88;;
76123;SDS011;65173;48.066;20.976;2022-12-24T09:52:35;35.10;;;20.40;;
76123;SDS011;65173;48.066;20.976;2022-12-24T09:55:43;34.08;;;18.35;;
76123;SDS011;65173;48.066;20.976;2022-12-24T09:58:55;48.58;;;26.08;;
76123;SDS011;65173;48.066;20.976;2022-12-24T10:02:00;55.13;;;29.07;;
76123;SDS011;65173;48.066;20.976;2022-12-24T10:05:05;28.90;;;16.20;;
76123;SDS011;65173;48.066;20.976;2022-12-24T10:08:21;34.30;;;20.65;;
76123;SDS011;65173;48.066;20.976;2022-12-24T10:11:40;29.52;;;15.23;;
76123;SDS011;65173;48.066;20.976;2022-12-24T10:14:54;30.52;;;16.95;;
76123;SDS011;65173;48.066;20.976;2022-12-24T10:25:15;30.10;;;16.77;;
76123;SDS011;65173;48.066;20.976;2022-12-24T10:28:27;30.63;;;16.20;;
76123;SDS011;65173;48.066;20.976;2022-12-24T10:31:35;41.75;;;20.75;;
76123;SDS011;65173;48.066;20.976;2022-12-24T10:34:44;51.83;;;26.27;;
76123;SDS011;65173;48.066;20.976;2022-12-24T10:37:51;65.60;;;30.58;;
76123;SDS011;65173;48.066;20.976;2022-12-24T10:40:54;55.70;;;24.45;;
76123;SDS011;65173;48.066;20.976;2022-12-24T10:44:01;65.40;;;31.13;;
76123;SDS011;65173;48.066;20.976;2022-12-24T10:47:06;73.70;;;34.13;;
76123;SDS011;65173;48.066;20.976;2022-12-24T10:50:23;55.22;;;28.42;;
76123;SDS011;65173;48.066;20.976;2022-12-24T10:57:21;47.50;;;22.00;;
76123;SDS011;65173;48.066;20.976;2022-12-24T11:00:27;57.22;;;23.35;;
76123;SDS011;65173;48.066;20.976;2022-12-24T11:03:37;48.55;;;22.88;;
76123;SDS011;65173;48.066;20.976;2022-12-24T11:10:22;42.63;;;20.83;;
76123;SDS011;65173;48.066;20.976;2022-12-24T11:13:26;54.58;;;24.00;;
76123;SDS011;65173;48.066;20.976;2022-12-24T11:16:39;51.42;;;25.05;;
76123;SDS011;65173;48.066;20.976;2022-12-24T11:19:50;45.67;;;22.25;;
76123;SDS011;65173;48.066;20.976;2022-12-24T11:22:53;43.60;;;20.92;;
76123;SDS011;65173;48.066;20.976;2022-12-24T11:25:57;42.53;;;20.73;;
76123;SDS011;65173;48.066;20.976;2022-12-24T11:29:03;47.63;;;22.77;;
76123;SDS011;65173;48.066;20.976;2022-12-24T11:32:21;57.50;;;27.17;;
76123;SDS011;65173;48.066;20.976;2022-12-24T11:35:24;53.72;;;22.83;;
76123;SDS011;65173;48.066;20.976;2022-12-24T11:38:28;56.80;;;24.03;;
76123;SDS011;65173;48.066;20.976;2022-12-24T11:41:36;58.28;;;22.58;;
76123;SDS011;65173;48.066;20.976;2022-12-24T11:44:45;41.10;;;18.60;;
76123;SDS011;65173;48.066;20.976;2022-12-24T11:47:51;49.45;;;20.10;;
76123;SDS011;65173;48.066;20.976;2022-12-24T11:51:00;56.80;;;21.45;;
76123;SDS011;65173;48.066;20.976;2022-12-24T11:57:14;49.85;;;20.20;;
76123;SDS011;65173;48.066;20.976;2022-12-24T12:00:20;34.60;;;15.07;;
76123;SDS011;65173;48.066;20.976;2022-12-24T12:03:30;47.33;;;19.38;;
76123;SDS011;65173;48.066;20.976;2022-12-24T12:06:39;61.67;;;22.13;;
76123;SDS011;65173;48.066;20.976;2022-12-24T12:09:55;69.87;;;25.33;;
76123;SDS011;65173;48.066;20.976;2022-12-24T12:13:03;58.83;;;22.85;;
76123;SDS011;65173;48.066;20.976;2022-12-24T12:16:23;42.53;;;18.70;;
76123;SDS011;65173;48.066;20.976;2022-12-24T12:19:57;49.17;;;21.77;;
76123;SDS011;65173;48.066;20.976;2022-12-24T12:26:20;43.40;;;18.33;;
76123;SDS011;65173;48.066;20.976;2022-12-24T12:29:35;42.30;;;16.15;;
76123;SDS011;65173;48.066;20.976;2022-12-24T12:32:52;51.80;;;21.57;;
76123;SDS011;65173;48.066;20.976;2022-12-24T12:36:02;48.40;;;19.73;;
76123;SDS011;65173;48.066;20.976;2022-12-24T12:39:08;43.65;;;18.25;;
76123;SDS011;65173;48.066;20.976;2022-12-24T12:45:43;48.70;;;20.02;;
76123;SDS011;65173;48.066;20.976;2022-12-24T12:48:52;50.25;;;20.52;;
76123;SDS011;65173;48.066;20.976;2022-12-24T12:58:48;45.80;;;19.83;;
76123;SDS011;65173;48.066;20.976;2022-12-24T13:15:39;94.77;;;41.30;;
76123;SDS011;65173;48.066;20.976;2022-12-24T13:22:15;101.22;;;45.25;;
76123;SDS011;65173;48.066;20.976;2022-12-24T13:25:20;100.13;;;46.58;;
76123;SDS011;65173;48.066;20.976;2022-12-24T13:28:31;112.25;;;46.85;;
76123;SDS011;65173;48.066;20.976;2022-12-24T13:31:35;87.30;;;40.42;;
76123;SDS011;65173;48.066;20.976;2022-12-24T13:34:38;78.47;;;40.42;;
76123;SDS011;65173;48.066;20.976;2022-12-24T13:37:41;65.43;;;30.93;;
76123;SDS011;65173;48.066;20.976;2022-12-24T13:40:44;58.88;;;27.40;;
76123;SDS011;65173;48.066;20.976;2022-12-24T13:53:40;45.35;;;23.38;;
76123;SDS011;65173;48.066;20.976;2022-12-24T13:56:45;77.18;;;37.35;;
76123;SDS011;65173;48.066;20.976;2022-12-24T13:59:52;114.25;;;46.42;;
76123;SDS011;65173;48.066;20.976;2022-12-24T14:06:27;127.57;;;39.10;;
76123;SDS011;65173;48.066;20.976;2022-12-24T14:09:33;199.83;;;50.63;;
76123;SDS011;65173;48.066;20.976;2022-12-24T14:12:47;128.07;;;33.20;;
76123;SDS011;65173;48.066;20.976;2022-12-24T14:19:09;145.70;;;43.63;;
76123;SDS011;65173;48.066;20.976;2022-12-24T14:25:20;128.85;;;34.65;;
76123;SDS011;65173;48.066;20.976;2022-12-24T14:28:25;115.95;;;31.45;;
76123;SDS011;65173;48.066;20.976;2022-12-24T14:31:36;85.53;;;21.58;;
76123;SDS011;65173;48.066;20.976;2022-12-24T14:34:39;102.40;;;17.98;;
76123;SDS011;65173;48.066;20.976;2022-12-24T14:38:01;58.80;;;22.95;;
76123;SDS011;65173;48.066;20.976;2022-12-24T14:44:45;103.45;;;33.25;;
76123;SDS011;65173;48.066;20.976;2022-12-24T14:58:32;71.40;;;25.30;;
76123;SDS011;65173;48.066;20.976;2022-12-24T15:01:38;54.58;;;23.30;;
76123;SDS011;65173;48.066;20.976;2022-12-24T15:04:40;52.97;;;24.05;;
76123;SDS011;65173;48.066;20.976;2022-12-24T15:08:07;62.38;;;19.65;;
76123;SDS011;65173;48.066;20.976;2022-12-24T15:11:13;113.80;;;23.55;;
76123;SDS011;65173;48.066;20.976;2022-12-24T15:14:19;118.33;;;23.63;;
76123;SDS011;65173;48.066;20.976;2022-12-24T15:17:24;84.40;;;20.13;;
76123;SDS011;65173;48.066;20.976;2022-12-24T15:20:28;136.75;;;25.95;;
76123;SDS011;65173;48.066;20.976;2022-12-24T15:23:33;117.43;;;24.33;;
76123;SDS011;65173;48.066;20.976;2022-12-24T15:26:37;68.40;;;26.70;;
76123;SDS011;65173;48.066;20.976;2022-12-24T15:29:47;91.57;;;27.73;;
76123;SDS011;65173;48.066;20.976;2022-12-24T15:32:52;89.97;;;28.30;;
76123;SDS011;65173;48.066;20.976;2022-12-24T15:35:56;103.03;;;25.40;;
76123;SDS011;65173;48.066;20.976;2022-12-24T15:39:01;72.95;;;21.05;;
76123;SDS011;65173;48.066;20.976;2022-12-24T15:42:09;58.15;;;18.60;;
76123;SDS011;65173;48.066;20.976;2022-12-24T15:45:20;59.40;;;18.53;;
76123;SDS011;65173;48.066;20.976;2022-12-24T15:48:29;87.95;;;31.45;;
76123;SDS011;65173;48.066;20.976;2022-12-24T15:51:34;201.65;;;67.47;;
76123;SDS011;65173;48.066;20.976;2022-12-24T15:54:42;164.77;;;61.90;;
76123;SDS011;65173;48.066;20.976;2022-12-24T15:57:53;153.20;;;52.75;;
76123;SDS011;65173;48.066;20.976;2022-12-24T16:04:11;138.13;;;50.92;;
76123;SDS011;65173;48.066;20.976;2022-12-24T16:07:25;135.48;;;45.85;;
76123;SDS011;65173;48.066;20.976;2022-12-24T16:11:07;114.32;;;41.45;;
76123;SDS011;65173;48.066;20.976;2022-12-24T16:14:20;111.60;;;38.83;;
76123;SDS011;65173;48.066;20.976;2022-12-24T16:17:24;120.23;;;39.30;;
76123;SDS011;65173;48.066;20.976;2022-12-24T16:20:31;89.15;;;36.60;;
76123;SDS011;65173;48.066;20.976;2022-12-24T16:23:38;99.38;;;35.80;;
76123;SDS011;65173;48.066;20.976;2022-12-24T16:26:47;94.60;;;39.53;;
76123;SDS011;65173;48.066;20.976;2022-12-24T16:29:50;66.57;;;28.02;;
76123;SDS011;65173;48.066;20.976;2022-12-24T16:32:53;81.93;;;33.58;;
76123;SDS011;65173;48.066;20.976;2022-12-24T16:35:56;102.85;;;36.83;;
76123;SDS011;65173;48.066;20.976;2022-12-24T16:38:59;76.40;;;29.52;;
76123;SDS011;65173;48.066;20.976;2022-12-24T16:42:20;192.95;;;65.38;;
76123;SDS011;65173;48.066;20.976;2022-12-24T16:45:42;123.70;;;43.47;;
76123;SDS011;65173;48.066;20.976;2022-12-24T16:48:46;65.30;;;28.00;;
76123;SDS011;65173;48.066;20.976;2022-12-24T16:51:50;69.57;;;28.08;;
76123;SDS011;65173;48.066;20.976;2022-12-24T16:54:53;53.40;;;25.75;;
76123;SDS011;65173;48.066;20.976;2022-12-24T16:57:56;56.30;;;24.37;;
76123;SDS011;65173;48.066;20.976;2022-12-24T17:01:04;66.82;;;32.53;;
76123;SDS011;65173;48.066;20.976;2022-12-24T17:04:10;64.20;;;31.33;;
76123;SDS011;65173;48.066;20.976;2022-12-24T17:07:14;72.65;;;36.15;;
76123;SDS011;65173;48.066;20.976;2022-12-24T17:10:18;92.35;;;43.40;;
76123;SDS011;65173;48.066;20.976;2022-12-24T17:13:21;438.40;;;142.65;;
76123;SDS011;65173;48.066;20.976;2022-12-24T17:16:24;271.40;;;92.28;;
76123;SDS011;65173;48.066;20.976;2022-12-24T17:19:26;146.07;;;46.80;;
76123;SDS011;65173;48.066;20.976;2022-12-24T17:22:29;139.05;;;50.33;;
76123;SDS011;65173;48.066;20.976;2022-12-24T17:25:34;297.08;;;96.43;;
76123;SDS011;65173;48.066;20.976;2022-12-24T17:28:37;137.00;;;59.80;;
76123;SDS011;65173;48.066;20.976;2022-12-24T17:31:40;102.68;;;46.58;;
76123;SDS011;65173;48.066;20.976;2022-12-24T17:34:44;78.55;;;42.45;;
76123;SDS011;65173;48.066;20.976;2022-12-24T17:37:47;68.60;;;36.45;;
76123;SDS011;65173;48.066;20.976;2022-12-24T17:40:49;86.70;;;40.97;;
76123;SDS011;65173;48.066;20.976;2022-12-24T17:43:52;71.18;;;36.42;;
76123;SDS011;65173;48.066;20.976;2022-12-24T17:46:55;69.25;;;34.42;;
76123;SDS011;65173;48.066;20.976;2022-12-24T17:49:58;91.47;;;44.57;;
76123;SDS011;65173;48.066;20.976;2022-12-24T17:53:00;84.68;;;40.38;;
76123;SDS011;65173;48.066;20.976;2022-12-24T17:56:03;85.65;;;40.22;;
76123;SDS011;65173;48.066;20.976;2022-12-24T17:59:07;81.17;;;40.57;;
76123;SDS011;65173;48.066;20.976;2022-12-24T18:02:10;89.22;;;39.05;;
76123;SDS011;65173;48.066;20.976;2022-12-24T18:05:14;92.32;;;42.50;;
76123;SDS011;65173;48.066;20.976;2022-12-24T18:08:18;81.28;;;35.50;;
76123;SDS011;65173;48.066;20.976;2022-12-24T18:14:34;89.82;;;38.38;;
76123;SDS011;65173;48.066;20.976;2022-12-24T18:17:36;69.85;;;33.95;;
76123;SDS011;65173;48.066;20.976;2022-12-24T18:20:39;72.77;;;34.70;;
76123;SDS011;65173;48.066;20.976;2022-12-24T18:23:48;69.70;;;35.75;;
76123;SDS011;65173;48.066;20.976;2022-12-24T18:26:52;74.78;;;36.33;;
76123;SDS011;65173;48.066;20.976;2022-12-24T18:29:56;85.57;;;40.00;;
76123;SDS011;65173;48.066;20.976;2022-12-24T18:32:59;102.10;;;47.47;;
76123;SDS011;65173;48.066;20.976;2022-12-24T18:36:02;60.20;;;28.35;;
76123;SDS011;65173;48.066;20.976;2022-12-24T18:39:05;59.45;;;29.38;;
76123;SDS011;65173;48.066;20.976;2022-12-24T18:42:08;37.00;;;18.85;;
76123;SDS011;65173;48.066;20.976;2022-12-24T18:45:16;38.28;;;21.30;;
76123;SDS011;65173;48.066;20.976;2022-12-24T18:48:18;33.08;;;17.55;;
76123;SDS011;65173;48.066;20.976;2022-12-24T18:51:22;46.17;;;24.30;;
76123;SDS011;65173;48.066;20.976;2022-12-24T18:54:25;43.45;;;22.80;;
76123;SDS011;65173;48.066;20.976;2022-12-24T18:57:28;41.72;;;18.83;;
76123;SDS011;65173;48.066;20.976;2022-12-24T19:00:31;34.27;;;17.23;;
76123;SDS011;65173;48.066;20.976;2022-12-24T19:03:34;36.65;;;18.02;;
76123;SDS011;65173;48.066;20.976;2022-12-24T19:06:38;34.92;;;18.13;;
76123;SDS011;65173;48.066;20.976;2022-12-24T19:09:41;68.55;;;26.33;;
76123;SDS011;65173;48.066;20.976;2022-12-24T19:12:43;87.43;;;34.45;;
76123;SDS011;65173;48.066;20.976;2022-12-24T19:15:46;91.53;;;40.60;;
76123;SDS011;65173;48.066;20.976;2022-12-24T19:18:49;83.18;;;32.60;;
76123;SDS011;65173;48.066;20.976;2022-12-24T19:21:51;37.07;;;17.63;;
76123;SDS011;65173;48.066;20.976;2022-12-24T19:24:54;38.35;;;17.10;;
76123;SDS011;65173;48.066;20.976;2022-12-24T19:27:57;59.17;;;28.45;;
76123;SDS011;65173;48.066;20.976;2022-12-24T19:31:01;59.03;;;26.67;;
76123;SDS011;65173;48.066;20.976;2022-12-24T19:34:10;61.17;;;27.83;;
76123;SDS011;65173;48.066;20.976;2022-12-24T19:37:13;57.97;;;26.60;;
76123;SDS011;65173;48.066;20.976;2022-12-24T19:40:16;47.40;;;22.95;;
76123;SDS011;65173;48.066;20.976;2022-12-24T19:43:19;54.55;;;24.60;;
76123;SDS011;65173;48.066;20.976;2022-12-24T19:46:23;51.88;;;23.77;;
76123;SDS011;65173;48.066;20.976;2022-12-24T19:49:34;55.03;;;25.85;;